Time;durP1;ratioP1;P1;durP2;ratioP2;P2;SDS_P1;SDS_P2;PMS_P1;PMS_P2;Temp;Humidity;BMP_temperature;BMP_pressure;BME280_temperature;BME280_humidity;BME280_pressure;Samples;Min_cycle;Max_cycle;Signal;HPM_P1;HPM_P2
2021/12/14 00:01:13;;;;;;;13.23;9.23;;;;;;;15.50;45.69;94223.00;4931836;28;20051;-86
2021/12/14 00:03:40;;;;;;;14.23;9.68;;;;;;;15.50;45.68;94228.47;4913368;29;20089;-82
2021/12/14 00:06:06;;;;;;;11.68;8.63;;;;;;;15.47;45.75;94230.16;4912395;29;20040;-82
2021/12/14 00:08:36;;;;;;;16.02;9.82;;;;;;;15.56;45.64;94223.88;4945301;28;20462;-83
2021/12/14 00:13:44;;;;;;;9.27;6.18;;;;;;;15.49;45.63;94225.00;4937575;28;20107;-83
2021/12/14 00:16:10;;;;;;;17.98;10.55;;;;;;;15.50;45.74;94226.50;4966820;28;20126;-84
2021/12/14 00:18:36;;;;;;;14.80;10.35;;;;;;;15.48;45.70;94218.03;4949191;28;20050;-82
2021/12/14 00:21:05;;;;;;;10.73;6.88;;;;;;;15.47;45.66;94219.25;4947798;28;20036;-82
2021/12/14 00:26:16;;;;;;;22.10;12.00;;;;;;;15.43;45.58;94219.44;4987652;28;20109;-82
2021/12/14 00:28:41;;;;;;;11.23;6.90;;;;;;;15.47;45.72;94226.69;4988244;28;20485;-83
2021/12/14 00:31:13;;;;;;;9.35;6.78;;;;;;;15.45;45.85;94229.88;4986659;28;20049;-82
2021/12/14 00:33:39;;;;;;;15.18;10.63;;;;;;;15.46;45.71;94227.91;4972034;28;20046;-84
2021/12/14 00:36:06;;;;;;;15.75;9.55;;;;;;;15.53;45.52;94224.81;4986969;28;20341;-82
2021/12/14 00:38:35;;;;;;;11.50;7.43;;;;;;;15.49;45.63;94225.00;4971959;28;20049;-82
2021/12/14 00:41:06;;;;;;;11.77;8.50;;;;;;;15.43;45.56;94233.06;4980567;28;20034;-83
2021/12/14 00:43:31;;;;;;;;;;;;;;;15.47;45.69;94226.69;4983004;28;20069;-82
2021/12/14 00:45:57;;;;;;;14.93;9.80;;;;;;;15.44;45.85;94226.41;5020401;28;19917;-82
2021/12/14 00:48:22;;;;;;;11.07;7.65;;;;;;;15.43;45.67;94233.06;4970595;28;20276;-82
2021/12/14 00:50:56;;;;;;;8.38;6.40;;;;;;;15.41;45.71;94221.13;4971345;28;20031;-82
2021/12/14 00:53:22;;;;;;;12.68;8.50;;;;;;;15.44;45.58;94225.66;4987348;28;20046;-82
2021/12/14 00:55:48;;;;;;;17.17;11.13;;;;;;;15.46;45.50;94225.19;4986866;28;20049;-82
2021/12/14 00:58:14;;;;;;;10.85;7.63;;;;;;;15.42;45.83;94225.34;4986797;28;20133;-89
2021/12/14 01:00:46;;;;;;;10.75;7.50;;;;;;;15.41;46.00;94227.34;4987513;28;20564;-88
2021/12/14 01:03:12;;;;;;;11.32;8.23;;;;;;;15.49;46.09;94224.22;4971283;28;20050;-82
2021/12/14 01:05:40;;;;;;;14.95;8.95;;;;;;;15.43;45.77;94235.03;4987116;28;20042;-82
2021/12/14 01:08:08;;;;;;;13.57;8.55;;;;;;;15.42;45.79;94228.09;4950315;28;20049;-83
2021/12/14 01:10:39;;;;;;;12.57;7.70;;;;;;;15.43;45.79;94230.34;4986985;28;20046;-82
2021/12/14 01:13:07;;;;;;;13.60;9.50;;;;;;;15.46;45.92;94236.81;4973568;28;20489;-82
2021/12/14 01:15:52;;;;;;;10.90;7.55;;;;;;;15.43;45.81;94235.03;5006999;28;20058;-83
2021/12/14 01:18:44;;;;;;;19.20;11.82;;;;;;;15.41;45.87;94235.50;5007486;28;20061;-82
2021/12/14 01:21:23;;;;;;;16.40;11.52;;;;;;;15.44;45.72;94242.00;5008676;28;20050;-82
2021/12/14 01:23:58;;;;;;;17.35;9.57;;;;;;;15.45;45.64;94243.50;4994045;28;20434;-82
2021/12/14 01:26:24;;;;;;;14.77;9.57;;;;;;;15.40;45.75;94242.19;4978370;28;20065;-82
2021/12/14 01:28:49;;;;;;;8.95;6.38;;;;;;;15.40;46.31;94244.91;4993515;28;20045;-82
2021/12/14 01:31:28;;;;;;;12.57;8.85;;;;;;;15.40;45.73;94235.97;4992631;28;20043;-82
2021/12/14 01:33:56;;;;;;;22.50;13.93;;;;;;;15.38;46.21;94243.88;4993353;28;20042;-83
2021/12/14 01:36:26;;;;;;;12.48;8.35;;;;;;;15.44;45.93;94239.25;4990287;28;20039;-82
2021/12/14 01:39:21;;;;;;;15.73;9.93;;;;;;;15.44;45.87;94240.03;4974118;28;20075;-82
2021/12/14 01:41:52;;;;;;;15.90;9.85;;;;;;;15.49;45.89;94241.34;4981671;28;20300;-83
2021/12/14 01:44:17;;;;;;;9.65;7.10;;;;;;;15.45;46.17;94229.88;5015709;28;20062;-82
2021/12/14 01:46:52;;;;;;;14.40;9.50;;;;;;;15.50;45.74;94228.47;4977566;28;20088;-83
2021/12/14 01:49:17;;;;;;;10.05;6.00;;;;;;;15.45;45.64;94227.16;4976823;28;20042;-82
2021/12/14 01:51:46;;;;;;;9.25;6.88;;;;;;;15.42;45.89;94228.09;4961115;28;20516;-82
2021/12/14 01:54:13;;;;;;;11.52;6.88;;;;;;;15.41;46.13;94235.50;4961256;28;20429;-82
2021/12/14 01:56:39;;;;;;;16.42;9.82;;;;;;;15.48;45.94;94237.09;4960370;28;20046;-85
2021/12/14 01:59:17;;;;;;;10.57;6.93;;;;;;;15.48;45.52;94233.63;4992489;28;20445;-82
2021/12/14 02:01:53;;;;;;;12.07;7.78;;;;;;;15.40;45.83;94239.44;4965059;28;20025;-82
2021/12/14 02:04:20;;;;;;;13.13;9.05;;;;;;;15.46;45.78;94234.09;4997045;28;20120;-82
2021/12/14 02:06:53;;;;;;;9.98;6.85;;;;;;;15.40;45.74;94225.06;5012027;28;20042;-82
2021/12/14 02:09:18;;;;;;;7.88;5.65;;;;;;;15.46;46.02;94227.91;4975133;28;20064;-82
2021/12/14 02:11:50;;;;;;;11.85;7.68;;;;;;;15.49;45.71;94221.50;4991690;28;20042;-82
2021/12/14 02:14:15;;;;;;;9.93;7.43;;;;;;;15.46;45.75;94223.19;4979219;28;20077;-82
2021/12/14 02:16:41;;;;;;;11.60;7.55;;;;;;;15.48;45.82;94228.94;4994409;28;20034;-83
2021/12/14 02:19:10;;;;;;;10.77;7.43;;;;;;;15.43;45.88;94233.06;4976412;28;20034;-82
2021/12/14 02:21:35;;;;;;;9.15;6.15;;;;;;;15.42;45.83;94233.53;4993035;28;20584;-82
2021/12/14 02:24:01;;;;;;;8.25;6.63;;;;;;;15.41;45.54;94224.59;4977046;28;20055;-82
2021/12/14 02:26:29;;;;;;;11.25;6.80;;;;;;;15.38;46.14;94235.69;4976803;28;20043;-82
2021/12/14 02:28:58;;;;;;;6.55;4.43;;;;;;;15.44;46.00;94225.66;4992992;28;20092;-82
2021/12/14 02:31:24;;;;;;;7.32;5.13;;;;;;;15.48;45.62;94225.47;4992160;28;20052;-82
2021/12/14 02:33:50;;;;;;;9.60;6.30;;;;;;;15.43;45.67;94211.28;4972712;28;20117;-83
2021/12/14 02:36:27;;;;;;;10.52;6.38;;;;;;;15.42;45.66;94234.28;4989782;28;20129;-82
2021/12/14 02:39:04;;;;;;;9.07;5.88;;;;;;;15.41;45.86;94221.13;4974127;28;20088;-83
2021/12/14 02:41:30;;;;;;;9.77;6.45;;;;;;;15.44;45.83;94228.38;5003633;28;20041;-82
2021/12/14 02:43:56;;;;;;;10.45;7.30;;;;;;;15.46;45.69;94227.91;4988779;28;20092;-82
2021/12/14 02:46:25;;;;;;;9.95;6.10;;;;;;;15.44;45.69;94220.94;4973096;28;20179;-82
2021/12/14 02:48:57;;;;;;;6.18;4.50;;;;;;;15.44;45.74;94215.50;5006293;28;20072;-83
2021/12/14 02:51:27;;;;;;;8.48;5.88;;;;;;;15.42;45.73;94214.47;4989457;28;20089;-83
2021/12/14 02:53:55;;;;;;;8.35;5.40;;;;;;;15.44;45.90;94212.78;4990132;28;20042;-89
2021/12/14 02:56:23;;;;;;;7.43;5.38;;;;;;;15.42;45.71;94214.47;4989087;28;20465;-82
2021/12/14 02:58:48;;;;;;;8.15;5.68;;;;;;;15.45;45.60;94218.97;4989712;28;20540;-83
2021/12/14 03:01:15;;;;;;;8.00;5.22;;;;;;;15.41;45.79;94205.53;4988629;28;20085;-82
2021/12/14 03:03:41;;;;;;;7.07;5.50;;;;;;;15.45;45.84;94210.81;4989800;28;20085;-88
2021/12/14 03:06:09;;;;;;;7.18;4.85;;;;;;;15.40;46.13;94206.00;4990248;28;20050;-82
2021/12/14 03:08:43;;;;;;;6.93;4.38;;;;;;;15.41;46.00;94208.25;4972611;28;20050;-83
2021/12/14 03:11:11;;;;;;;7.18;4.95;;;;;;;15.40;45.59;94209.47;4988545;28;20070;-82
2021/12/14 03:13:50;;;;;;;6.63;4.90;;;;;;;15.37;45.89;94206.97;4980697;28;20516;-82
2021/12/14 03:16:25;;;;;;;7.05;5.15;;;;;;;15.38;45.82;94206.47;5008139;28;20505;-88
2021/12/14 03:18:50;;;;;;;6.82;4.82;;;;;;;15.42;46.00;94209.75;5009286;28;20056;-82
2021/12/14 03:21:26;;;;;;;6.22;4.38;;;;;;;15.40;45.87;94209.47;4994999;28;20498;-82
2021/12/14 03:23:55;;;;;;;9.27;5.50;;;;;;;15.36;45.83;94208.94;4989362;28;20042;-82
2021/12/14 03:26:23;;;;;;;9.10;6.43;;;;;;;15.36;45.80;94202.75;4972148;28;20521;-82
2021/12/14 03:28:51;;;;;;;7.03;5.15;;;;;;;15.33;46.06;94204.44;4989323;28;20038;-82
2021/12/14 03:31:19;;;;;;;7.30;4.93;;;;;;;15.40;45.76;94206.75;4972401;28;20505;-82
2021/12/14 03:33:47;;;;;;;6.88;4.50;;;;;;;15.43;45.73;94196.91;4989884;28;20047;-83
2021/12/14 03:36:16;;;;;;;6.70;4.60;;;;;;;15.40;45.75;94195.88;4971817;28;20042;-82
2021/12/14 03:38:51;;;;;;;6.20;4.68;;;;;;;15.39;45.74;94199.06;4957778;28;20112;-82
2021/12/14 03:41:21;;;;;;;7.32;4.95;;;;;;;15.36;46.02;94197.31;4983349;28;20528;-82
2021/12/14 03:43:54;;;;;;;8.57;5.28;;;;;;;15.41;45.85;94194.63;4991976;28;20721;-82
2021/12/14 03:46:19;;;;;;;7.22;4.97;;;;;;;15.38;45.56;94194.81;4987542;28;20038;-82
2021/12/14 03:48:45;;;;;;;6.65;4.45;;;;;;;15.37;45.70;94198.81;4956617;28;20093;-82
2021/12/14 03:51:10;;;;;;;7.45;5.13;;;;;;;15.39;45.63;94199.81;4971680;28;20039;-82
2021/12/14 03:53:36;;;;;;;5.30;4.38;;;;;;;15.33;45.69;94207.16;4972391;28;20046;-82
2021/12/14 03:56:04;;;;;;;7.15;4.55;;;;;;;15.39;45.73;94205.25;4972082;28;20038;-82
2021/12/14 03:58:38;;;;;;;5.95;4.35;;;;;;;15.35;45.71;94207.44;4955615;28;20077;-82
2021/12/14 04:01:14;;;;;;;6.78;4.70;;;;;;;15.36;45.72;94208.94;4972317;28;20039;-83
2021/12/14 04:03:40;;;;;;;5.10;3.95;;;;;;;15.34;45.95;94200.50;4968924;28;20473;-84
2021/12/14 04:06:05;;;;;;;9.55;4.68;;;;;;;15.37;45.91;94194.06;5001013;28;20035;-82
2021/12/14 04:08:31;;;;;;;5.97;4.40;;;;;;;15.41;45.81;94211.00;5004118;28;20409;-82
2021/12/14 04:10:57;;;;;;;5.80;3.83;;;;;;;15.38;45.68;94213.91;4955821;28;20042;-82
2021/12/14 04:13:25;;;;;;;6.93;4.40;;;;;;;15.48;45.57;94218.03;4976829;28;20046;-82
2021/12/14 04:15:51;;;;;;;7.00;4.30;;;;;;;15.38;45.75;94216.63;5008003;28;20045;-82
2021/12/14 04:18:16;;;;;;;5.85;4.13;;;;;;;15.38;45.87;94224.78;5007206;28;20046;-82
2021/12/14 04:20:42;;;;;;;7.60;4.18;;;;;;;15.42;46.03;94217.19;5002869;28;20042;-90
2021/12/14 04:23:12;;;;;;;6.50;4.07;;;;;;;15.42;45.72;94217.19;4987705;28;20038;-84
2021/12/14 04:25:37;;;;;;;7.25;4.15;;;;;;;15.41;45.56;94218.41;4988052;28;20038;-82
2021/12/14 04:28:08;;;;;;;6.50;4.32;;;;;;;15.44;45.62;94212.78;4987604;28;20073;-82
2021/12/14 04:30:34;;;;;;;6.15;3.80;;;;;;;15.42;45.67;94203.56;4988110;28;20046;-82
2021/12/14 04:33:02;;;;;;;6.82;4.20;;;;;;;15.33;45.87;94201.72;4971287;28;20453;-82
2021/12/14 04:35:27;;;;;;;5.03;3.45;;;;;;;15.33;45.84;94207.16;4955047;28;20038;-82
2021/12/14 04:37:57;;;;;;;4.53;3.13;;;;;;;15.35;45.69;94199.28;4955653;28;20053;-86
2021/12/14 04:53:55;;;;;;;5.13;3.67;;;;;;;15.38;45.56;94203.75;5002219;28;20097;-84
2021/12/14 04:56:23;;;;;;;6.32;4.03;;;;;;;15.36;45.54;94203.50;5002845;28;20460;-84
2021/12/14 04:58:54;;;;;;;7.93;3.47;;;;;;;15.38;45.74;94205.72;5003261;28;20121;-85
2021/12/14 05:01:20;;;;;;;9.02;3.67;;;;;;;15.41;45.61;94204.78;4995518;28;20042;-84
2021/12/14 05:03:56;;;;;;;5.53;3.08;;;;;;;15.38;45.60;94200.28;4987497;28;20026;-87
2021/12/14 05:06:23;;;;;;;7.40;3.90;;;;;;;15.36;45.90;94206.22;4980809;28;20049;-84
2021/12/14 05:09:21;;;;;;;5.05;3.22;;;;;;;15.36;45.61;94203.50;5002619;28;20046;-85
2021/12/14 05:11:58;;;;;;;4.03;2.78;;;;;;;15.38;45.85;94203.00;4970497;28;20042;-84
2021/12/14 05:14:24;;;;;;;5.97;2.92;;;;;;;15.35;45.68;94198.53;5024316;28;20061;-85
2021/12/14 05:16:59;;;;;;;8.80;4.00;;;;;;;15.46;45.51;94195.19;5003392;28;20034;-87
2021/12/14 05:19:25;;;;;;;7.30;5.07;;;;;;;15.42;45.75;94181.78;5001283;28;20050;-88
2021/12/14 05:21:51;;;;;;;198.90;177.52;;;;;;;15.46;45.95;94189.75;5001499;28;20053;-85
2021/12/14 05:24:18;;;;;;;10.18;7.50;;;;;;;15.48;45.60;94188.06;4969513;28;20043;-82
2021/12/14 05:26:44;;;;;;;4.75;3.60;;;;;;;15.45;45.71;94191.72;4984906;28;20051;-85
2021/12/14 05:29:10;;;;;;;10.48;5.05;;;;;;;15.64;45.94;94181.38;4987682;28;20046;-82
2021/12/14 05:31:43;;;;;;;8.30;4.07;;;;;;;15.59;45.91;94198.41;4974628;28;20042;-83
2021/12/14 05:34:09;;;;;;;7.65;5.22;;;;;;;15.63;45.06;94196.22;4984206;28;20467;-86
2021/12/14 05:36:34;;;;;;;17.55;5.28;;;;;;;15.69;45.59;94205.25;4988327;28;20070;-86
2021/12/14 05:39:18;;;;;;;50.55;31.70;;;;;;;15.67;45.39;94202.25;4989526;28;20046;-84
2021/12/14 05:44:28;;;;;;;19.92;13.50;;;;;;;15.66;45.64;94201.50;5000611;28;20069;-89
2021/12/14 05:46:55;;;;;;;9.98;5.82;;;;;;;15.77;44.96;94198.94;4970940;28;20522;-86
2021/12/14 05:49:24;;;;;;;15.45;11.70;;;;;;;15.69;45.17;94192.38;4986301;28;20572;-86
2021/12/14 05:51:50;;;;;;;15.13;7.85;;;;;;;15.64;45.21;94189.56;5000789;28;20049;-88
2021/12/14 05:54:25;;;;;;;23.95;11.32;;;;;;;15.69;45.10;94186.91;4989217;28;20030;-88
2021/12/14 05:56:51;;;;;;;26.55;14.55;;;;;;;15.69;45.18;94181.47;4975366;28;20059;-86
2021/12/14 05:59:19;;;;;;;57.10;23.60;;;;;;;15.64;45.09;94181.38;4988801;28;20038;-83
2021/12/14 06:01:44;;;;;;;87.30;28.95;;;;;;;15.44;43.36;94182.06;4991753;28;20409;-90
2021/12/14 06:04:10;;;;;;;95.70;30.27;;;;;;;15.41;42.36;94178.28;4986385;28;20074;-84
2021/12/14 06:06:39;;;;;;;106.88;30.80;;;;;;;15.47;42.43;94167.50;4970947;28;20539;-85
2021/12/14 06:09:19;;;;;;;94.82;33.70;;;;;;;15.41;42.69;94180.25;5005034;28;20034;-84
2021/12/14 06:11:46;;;;;;;92.15;34.28;;;;;;;15.49;43.34;94172.47;4974017;28;20050;-83
2021/12/14 06:14:17;;;;;;;67.85;30.42;;;;;;;15.41;44.08;94180.25;5023993;28;20125;-87
2021/12/14 06:16:43;;;;;;;73.60;30.80;;;;;;;15.44;44.28;94179.31;5004891;28;20050;-85
2021/12/14 06:19:17;;;;;;;79.55;33.85;;;;;;;15.46;44.40;94168.72;4972612;28;20046;-85
2021/12/14 06:21:43;;;;;;;82.80;37.47;;;;;;;15.51;44.38;94170.03;5020858;28;20117;-87
2021/12/14 06:24:09;;;;;;;97.10;38.40;;;;;;;15.56;44.44;94183.00;4974007;28;20038;-85
2021/12/14 06:26:44;;;;;;;84.35;35.30;;;;;;;15.55;44.24;94182.22;5012548;28;20146;-86
2021/12/14 06:29:12;;;;;;;108.65;41.85;;;;;;;15.54;44.56;94186.19;5006122;28;20812;-86
2021/12/14 06:31:37;;;;;;;86.25;35.75;;;;;;;15.66;43.96;94187.84;5006698;28;20050;-85
2021/12/14 06:34:20;;;;;;;103.93;37.92;;;;;;;15.66;44.49;94178.94;5005270;28;20156;-84
2021/12/14 06:36:48;;;;;;;108.38;36.97;;;;;;;15.58;44.54;94172.38;5022607;28;20197;-86
2021/12/14 06:39:13;;;;;;;92.43;37.60;;;;;;;15.57;44.47;94184.50;4987715;28;20042;-88
2021/12/14 06:41:39;;;;;;;90.25;37.25;;;;;;;15.56;44.69;94183.75;5006373;28;20834;-86
2021/12/14 06:44:04;;;;;;;74.18;32.28;;;;;;;15.54;44.23;94180.72;4955775;28;20054;-86
2021/12/14 06:46:31;;;;;;;68.47;31.90;;;;;;;15.52;44.14;94166.81;4955446;28;20279;-87
2021/12/14 06:49:00;;;;;;;84.93;37.40;;;;;;;15.53;44.14;94167.56;4992658;28;20046;-85
2021/12/14 06:51:31;;;;;;;80.07;34.80;;;;;;;15.59;44.26;94176.63;5021668;28;20034;-84
2021/12/14 06:53:59;;;;;;;117.90;39.67;;;;;;;15.62;44.61;94167.47;4982977;28;20073;-89
2021/12/14 06:56:26;;;;;;;122.15;39.80;;;;;;;15.59;44.54;94169.16;5002998;28;20142;-84
2021/12/14 06:59:00;;;;;;;97.88;40.20;;;;;;;15.59;44.81;94168.44;5003987;28;20126;-86
2021/12/14 07:01:28;;;;;;;95.25;39.10;;;;;;;15.61;44.74;94168.69;5005136;28;20767;-87
2021/12/14 07:04:01;;;;;;;111.80;42.00;;;;;;;15.60;44.58;94162.50;4992241;28;20065;-87
2021/12/14 07:06:27;;;;;;;97.38;38.60;;;;;;;15.66;44.30;94160.59;4986299;28;20046;-89
2021/12/14 07:08:54;;;;;;;97.47;38.53;;;;;;;15.74;44.40;94158.25;5005892;28;20049;-87
2021/12/14 07:11:21;;;;;;;128.60;60.47;;;;;;;15.74;44.59;94164.44;4958421;28;20043;-83
2021/12/14 07:13:47;;;;;;;108.40;47.28;;;;;;;15.80;44.70;94171.97;5005617;28;20524;-91
2021/12/14 07:16:19;;;;;;;104.25;51.08;;;;;;;15.79;44.88;94167.72;4998215;28;20042;-87
2021/12/14 07:18:46;;;;;;;105.15;49.85;;;;;;;15.72;44.41;94171.59;4996635;28;20050;-91
2021/12/14 07:21:12;;;;;;;147.27;72.35;;;;;;;15.80;44.55;94172.72;5008313;28;20153;-87
2021/12/14 07:23:38;;;;;;;100.53;49.92;;;;;;;15.86;44.48;94165.34;5028001;28;20850;-84
2021/12/14 07:26:07;;;;;;;72.57;35.00;;;;;;;15.69;44.29;94164.34;4988640;28;20108;-87
2021/12/14 07:28:37;;;;;;;83.95;41.08;;;;;;;15.66;44.21;94157.88;4990081;28;20571;-85
2021/12/14 07:31:11;;;;;;;115.13;45.83;;;;;;;15.65;44.28;94159.09;5002303;28;20042;-84
2021/12/14 07:33:37;;;;;;;101.82;39.92;;;;;;;15.69;44.30;94164.34;5001274;28;20112;-85
2021/12/14 07:36:08;;;;;;;145.68;49.85;;;;;;;15.68;44.68;94152.72;4951379;28;20038;-84
2021/12/14 07:38:47;;;;;;;51.40;22.90;;;;;;;15.60;43.18;94159.03;4984019;28;20038;-85
2021/12/14 07:41:30;;;;;;;69.72;25.65;;;;;;;15.51;43.05;94167.28;5004275;28;20053;-84
2021/12/14 07:44:01;;;;;;;62.17;26.33;;;;;;;15.49;43.11;94175.94;4987997;28;20085;-84
2021/12/14 07:46:29;;;;;;;68.35;30.23;;;;;;;15.45;43.33;94167.22;4982572;28;20121;-83
2021/12/14 07:48:57;;;;;;;175.60;49.45;;;;;;;15.48;43.69;94160.06;4988166;28;20425;-86
2021/12/14 07:51:23;;;;;;;150.45;48.92;;;;;;;15.52;43.76;94161.38;4970162;28;20050;-87
2021/12/14 07:53:51;;;;;;;160.25;59.42;;;;;;;15.61;44.27;94155.81;5005243;28;20559;-87
2021/12/14 07:56:30;;;;;;;128.68;52.05;;;;;;;15.57;44.10;94151.81;4985263;28;20038;-87
2021/12/14 07:58:57;;;;;;;143.85;52.97;;;;;;;15.57;44.15;94155.28;4973993;28;20445;-85
2021/12/14 08:01:25;;;;;;;122.38;50.92;;;;;;;15.55;44.12;94156.97;5022089;28;20042;-86
2021/12/14 08:04:04;;;;;;;129.18;51.10;;;;;;;15.57;44.50;94152.56;5009910;28;20361;-84
2021/12/14 08:06:53;;;;;;;125.22;58.65;;;;;;;15.64;44.50;94181.38;5008517;28;20293;-86
2021/12/14 08:09:47;;;;;;;146.35;66.22;;;;;;;15.58;44.76;94177.84;5019463;28;20133;-85
2021/12/14 08:12:34;;;;;;;171.45;73.40;;;;;;;15.63;44.39;94171.69;5001647;28;20077;-84
2021/12/14 08:15:16;;;;;;;166.25;84.57;;;;;;;15.67;44.52;94177.72;5035886;28;20054;-86
2021/12/14 08:17:42;;;;;;;198.43;97.93;;;;;;;15.64;44.39;94170.47;4984322;28;20051;-89
2021/12/14 08:20:12;;;;;;;187.07;85.93;;;;;;;15.74;44.73;94172.63;4987577;28;20046;-85
2021/12/14 08:22:40;;;;;;;158.20;80.47;;;;;;;15.66;44.57;94160.59;4988534;28;20069;-86
2021/12/14 08:25:07;;;;;;;197.70;84.22;;;;;;;15.68;44.40;94160.88;5005907;28;20073;-84
2021/12/14 08:27:33;;;;;;;164.43;80.43;;;;;;;15.62;44.50;94162.78;4954667;28;20054;-85
2021/12/14 08:30:00;;;;;;;169.65;76.60;;;;;;;15.63;44.72;94160.78;4963319;28;20117;-85
2021/12/14 08:32:30;;;;;;;591.17;194.68;;;;;;;15.65;44.97;94159.09;5004934;28;20080;-87
2021/12/14 08:34:56;;;;;;;340.43;115.33;;;;;;;15.69;44.89;94161.63;4968690;28;20652;-90
2021/12/14 08:37:27;;;;;;;202.35;78.68;;;;;;;15.68;44.79;94163.59;4982970;28;20120;-85
2021/12/14 08:40:00;;;;;;;152.48;66.45;;;;;;;15.66;44.78;94165.31;4990673;28;20104;-85
2021/12/14 08:42:33;;;;;;;157.85;71.57;;;;;;;15.74;44.57;94163.69;4989288;28;20057;-84
2021/12/14 08:45:24;;;;;;;146.75;64.95;;;;;;;15.68;44.90;94162.84;4969396;28;20043;-84
2021/12/14 08:47:50;;;;;;;161.50;73.47;;;;;;;15.66;44.80;94151.69;4921318;29;20051;-83
2021/12/14 08:50:15;;;;;;;138.43;63.67;;;;;;;15.77;45.01;94157.28;4945424;28;20039;-84
2021/12/14 08:52:42;;;;;;;142.98;66.50;;;;;;;15.66;44.82;94159.84;4950744;28;20054;-84
2021/12/14 08:55:09;;;;;;;187.70;73.40;;;;;;;15.68;45.25;94162.84;4950907;28;20047;-87
2021/12/14 08:57:35;;;;;;;147.70;69.10;;;;;;;15.72;44.72;94160.69;4965852;28;20058;-86
2021/12/14 09:00:15;;;;;;;123.35;62.00;;;;;;;15.75;44.58;94162.47;4932499;28;20035;-88
2021/12/14 09:02:40;;;;;;;79.97;32.90;;;;;;;15.61;43.33;94161.28;4971104;28;20050;-83
2021/12/14 09:05:23;;;;;;;54.33;27.08;;;;;;;15.53;43.43;94151.22;4965259;28;20042;-84
2021/12/14 09:07:48;;;;;;;94.63;33.03;;;;;;;15.56;43.01;94158.50;4942866;28;20281;-85
2021/12/14 09:10:18;;;;;;;141.13;41.35;;;;;;;15.62;43.80;94159.28;4965349;28;20604;-85
2021/12/14 09:12:45;;;;;;;133.27;48.72;;;;;;;15.63;43.63;94150.66;4973456;28;20102;-85
2021/12/14 09:15:19;;;;;;;116.40;47.40;;;;;;;15.62;44.05;94151.88;4967943;28;20062;-85
2021/12/14 09:17:44;;;;;;;122.60;54.55;;;;;;;15.66;44.62;94146.97;5011443;28;20843;-87
2021/12/14 09:20:26;;;;;;;118.88;52.10;;;;;;;15.64;44.52;94145.94;4968690;28;20042;-86
2021/12/14 09:22:55;;;;;;;121.68;55.35;;;;;;;15.67;44.93;94158.63;5005371;28;20070;-86
2021/12/14 09:25:23;;;;;;;123.47;57.67;;;;;;;15.61;44.90;94158.53;4972938;28;20026;-85
2021/12/14 09:27:49;;;;;;;109.90;57.10;;;;;;;15.64;44.69;94157.59;5001480;28;20042;-86
2021/12/14 09:30:18;;;;;;;112.07;55.72;;;;;;;15.70;44.80;94152.22;5002067;28;20038;-85
2021/12/14 09:32:43;;;;;;;142.30;64.10;;;;;;;15.71;44.83;94148.28;5002165;28;20054;-87
2021/12/14 09:35:13;;;;;;;130.30;59.75;;;;;;;15.68;44.44;94158.16;4969774;28;20046;-86
2021/12/14 09:37:39;;;;;;;131.40;61.50;;;;;;;15.64;44.78;94141.25;4971031;28;20046;-85
2021/12/14 09:40:11;;;;;;;128.50;62.78;;;;;;;15.70;44.61;94135.88;4985508;28;20422;-87
2021/12/14 09:42:36;;;;;;;157.75;73.10;;;;;;;15.69;44.86;94143.31;5003483;28;20766;-86
2021/12/14 09:45:09;;;;;;;156.73;70.35;;;;;;;15.72;44.87;94128.72;4989819;28;20570;-86
2021/12/14 09:47:35;;;;;;;146.23;68.40;;;;;;;15.68;45.09;94130.16;5001721;28;20125;-88
2021/12/14 09:50:08;;;;;;;143.02;67.88;;;;;;;15.70;44.81;94124.97;4985545;28;20084;-88
2021/12/14 09:52:35;;;;;;;151.82;70.93;;;;;;;15.72;44.81;94130.72;5012084;28;20489;-89
2021/12/14 09:55:02;;;;;;;141.07;66.40;;;;;;;15.72;44.93;94136.16;5010561;28;20034;-87
2021/12/14 09:57:34;;;;;;;139.65;64.35;;;;;;;15.75;45.06;94125.06;5026307;28;20077;-87
2021/12/14 10:00:04;;;;;;;139.15;69.38;;;;;;;15.72;44.96;94112.38;4975297;28;20038;-86
2021/12/14 10:02:33;;;;;;;128.18;59.58;;;;;;;15.74;44.60;94120.09;5001462;28;20775;-87
2021/12/14 10:05:10;;;;;;;73.60;35.45;;;;;;;15.66;43.48;94111.53;4996115;28;20046;-88
2021/12/14 10:07:37;;;;;;;71.93;31.98;;;;;;;15.61;42.82;94112.22;4958580;28;20105;-85
2021/12/14 10:10:14;;;;;;;61.67;29.98;;;;;;;15.64;43.09;94108.53;4990466;28;20042;-90
2021/12/14 10:12:49;;;;;;;87.80;36.88;;;;;;;15.62;43.12;94119.16;5005885;28;20082;-85
2021/12/14 10:15:25;;;;;;;109.38;45.03;;;;;;;15.62;43.21;94121.91;5027078;28;20529;-87
2021/12/14 10:17:52;;;;;;;143.48;57.83;;;;;;;15.67;43.53;94109.56;4976743;28;20038;-84
2021/12/14 10:20:22;;;;;;;186.93;79.00;;;;;;;15.68;44.04;94100.91;4969729;28;20201;-85
2021/12/14 10:22:51;;;;;;;152.48;66.70;;;;;;;15.71;44.58;94096.50;4979414;28;20177;-85
2021/12/14 10:25:18;;;;;;;149.32;66.28;;;;;;;15.67;44.85;94102.16;4990735;28;20093;-85
2021/12/14 10:27:43;;;;;;;150.70;67.93;;;;;;;15.74;44.61;94109.94;5012491;28;20043;-87
2021/12/14 10:30:20;;;;;;;171.65;73.32;;;;;;;15.72;44.82;94103.44;5007082;28;20041;-84
2021/12/14 10:32:45;;;;;;;166.73;73.88;;;;;;;15.71;44.43;94088.31;5021270;28;20038;-89
2021/12/14 10:35:14;;;;;;;181.23;85.28;;;;;;;15.71;45.14;94088.31;4988438;28;20041;-84
2021/12/14 10:38:08;;;;;;;159.05;77.32;;;;;;;15.75;44.98;94073.28;4988472;28;20038;-85
2021/12/14 10:43:19;;;;;;;149.15;73.90;;;;;;;15.74;45.25;94071.75;5002482;28;20030;-86
2021/12/14 10:45:52;;;;;;;164.48;72.47;;;;;;;15.87;45.11;94065.22;4986187;28;20046;-84
2021/12/14 10:48:19;;;;;;;133.38;61.05;;;;;;;15.80;45.78;94057.47;5004967;28;20057;-86
2021/12/14 10:50:44;;;;;;;128.98;59.70;;;;;;;15.70;45.05;94059.56;4989963;28;20549;-86
2021/12/14 10:53:10;;;;;;;152.73;64.93;;;;;;;15.70;45.00;94065.00;4989784;28;20046;-86
2021/12/14 10:55:43;;;;;;;119.72;60.13;;;;;;;15.70;44.39;94063.03;5006970;28;20060;-85
2021/12/14 10:58:09;;;;;;;141.15;70.20;;;;;;;15.78;44.84;94074.28;4988710;28;20035;-87
2021/12/14 11:00:45;;;;;;;164.77;72.78;;;;;;;15.73;45.07;94070.25;5001199;28;20089;-86
2021/12/14 11:03:17;;;;;;;168.10;81.47;;;;;;;15.71;45.30;94086.34;5004439;28;20061;-87
2021/12/14 11:05:48;;;;;;;179.88;84.10;;;;;;;15.77;45.68;94080.97;4989840;28;20038;-85
2021/12/14 11:08:35;;;;;;;174.60;86.00;;;;;;;15.79;45.49;94083.22;5020469;28;20055;-86
2021/12/14 11:11:02;;;;;;;167.43;83.40;;;;;;;15.88;46.12;94080.34;5007816;28;20053;-88
2021/12/14 11:13:32;;;;;;;170.90;85.43;;;;;;;15.86;45.49;94083.53;4979530;28;20112;-87
2021/12/14 11:15:59;;;;;;;148.02;81.50;;;;;;;15.87;45.73;94087.00;4988647;28;20045;-88
2021/12/14 11:18:26;;;;;;;151.50;78.47;;;;;;;15.89;45.77;94076.38;5002057;28;20043;-84
2021/12/14 11:20:57;;;;;;;139.43;76.18;;;;;;;15.85;45.45;94073.84;4988719;28;20050;-88
2021/12/14 11:23:28;;;;;;;146.70;77.85;;;;;;;15.84;45.41;94071.59;4992239;28;20098;-87
2021/12/14 11:25:57;;;;;;;130.55;69.22;;;;;;;15.82;45.25;94077.53;4975304;28;20039;-87
2021/12/14 11:28:29;;;;;;;139.48;84.03;;;;;;;15.87;45.58;94076.13;4998168;28;20041;-87
2021/12/14 11:31:13;;;;;;;135.93;70.60;;;;;;;15.86;45.66;94078.09;4995786;28;20406;-89
2021/12/14 11:33:47;;;;;;;123.82;67.28;;;;;;;15.93;45.65;94082.38;5009761;28;20049;-91
2021/12/14 11:36:17;;;;;;;129.30;63.42;;;;;;;16.01;45.30;94072.56;4957275;28;20034;-85
2021/12/14 11:38:57;;;;;;;111.43;64.10;;;;;;;15.96;45.48;94081.44;5008759;28;20046;-84
2021/12/14 11:41:28;;;;;;;113.13;61.17;;;;;;;15.98;45.28;94070.81;5006394;28;20047;-85
2021/12/14 11:43:57;;;;;;;113.72;60.80;;;;;;;15.99;45.46;94070.31;5014506;28;20144;-87
2021/12/14 11:46:23;;;;;;;109.22;61.88;;;;;;;16.03;45.44;94065.38;5029132;28;20068;-84
2021/12/14 11:48:48;;;;;;;104.82;60.28;;;;;;;15.98;45.21;94066.09;4992715;28;20501;-86
2021/12/14 11:51:13;;;;;;;94.53;53.70;;;;;;;15.95;45.19;94072.50;4974569;28;20034;-84
2021/12/14 11:53:46;;;;;;;105.80;58.00;;;;;;;16.00;45.13;94069.09;4991092;28;20053;-87
2021/12/14 11:56:14;;;;;;;121.35;63.30;;;;;;;15.91;45.03;94055.59;5004975;28;20034;-85